sensor_id;sensor_type;location;lat;lon;timestamp;P1;durP1;ratioP1;P2;durP2;ratioP2
54430;SDS011;40342;52.998;5.862;2024-03-22T00:00:03;26.13;;;22.75;;
54430;SDS011;40342;52.998;5.862;2024-03-22T00:02:29;27.08;;;23.42;;
54430;SDS011;40342;52.998;5.862;2024-03-22T00:04:55;27.85;;;24.00;;
54430;SDS011;40342;52.998;5.862;2024-03-22T00:07:21;27.13;;;24.15;;
54430;SDS011;40342;52.998;5.862;2024-03-22T00:09:46;27.95;;;24.83;;
54430;SDS011;40342;52.998;5.862;2024-03-22T00:12:12;26.38;;;23.60;;
54430;SDS011;40342;52.998;5.862;2024-03-22T00:14:37;31.35;;;24.70;;
54430;SDS011;40342;52.998;5.862;2024-03-22T00:17:03;32.15;;;26.17;;
54430;SDS011;40342;52.998;5.862;2024-03-22T00:19:29;28.15;;;24.90;;
54430;SDS011;40342;52.998;5.862;2024-03-22T00:21:54;28.92;;;24.45;;
54430;SDS011;40342;52.998;5.862;2024-03-22T00:24:20;27.73;;;24.23;;
54430;SDS011;40342;52.998;5.862;2024-03-22T00:26:45;31.20;;;25.90;;
54430;SDS011;40342;52.998;5.862;2024-03-22T00:29:11;27.88;;;24.90;;
54430;SDS011;40342;52.998;5.862;2024-03-22T00:31:36;35.00;;;27.20;;
54430;SDS011;40342;52.998;5.862;2024-03-22T00:34:02;28.35;;;25.08;;
54430;SDS011;40342;52.998;5.862;2024-03-22T00:36:28;33.33;;;26.02;;
54430;SDS011;40342;52.998;5.862;2024-03-22T00:38:53;29.52;;;25.02;;
54430;SDS011;40342;52.998;5.862;2024-03-22T00:41:19;32.30;;;26.08;;
54430;SDS011;40342;52.998;5.862;2024-03-22T00:43:44;31.33;;;25.40;;
54430;SDS011;40342;52.998;5.862;2024-03-22T00:46:10;31.80;;;26.50;;
54430;SDS011;40342;52.998;5.862;2024-03-22T00:48:35;29.83;;;25.75;;
54430;SDS011;40342;52.998;5.862;2024-03-22T00:51:01;35.67;;;27.08;;
54430;SDS011;40342;52.998;5.862;2024-03-22T00:53:27;31.33;;;27.02;;
54430;SDS011;40342;52.998;5.862;2024-03-22T00:55:54;36.22;;;27.65;;
54430;SDS011;40342;52.998;5.862;2024-03-22T00:58:21;38.35;;;28.55;;
54430;SDS011;40342;52.998;5.862;2024-03-22T01:00:46;33.83;;;27.90;;
54430;SDS011;40342;52.998;5.862;2024-03-22T01:03:12;40.20;;;28.40;;
54430;SDS011;40342;52.998;5.862;2024-03-22T01:05:38;38.60;;;28.83;;
54430;SDS011;40342;52.998;5.862;2024-03-22T01:08:05;41.90;;;27.90;;
54430;SDS011;40342;52.998;5.862;2024-03-22T01:10:32;41.28;;;30.58;;
54430;SDS011;40342;52.998;5.862;2024-03-22T01:12:58;38.03;;;29.67;;
54430;SDS011;40342;52.998;5.862;2024-03-22T01:15:24;40.15;;;30.42;;
54430;SDS011;40342;52.998;5.862;2024-03-22T01:17:50;44.55;;;29.83;;
54430;SDS011;40342;52.998;5.862;2024-03-22T01:20:17;46.70;;;31.65;;
54430;SDS011;40342;52.998;5.862;2024-03-22T01:22:42;43.40;;;31.30;;
54430;SDS011;40342;52.998;5.862;2024-03-22T01:25:08;45.90;;;32.47;;
54430;SDS011;40342;52.998;5.862;2024-03-22T01:27:35;49.53;;;31.23;;
54430;SDS011;40342;52.998;5.862;2024-03-22T01:30:01;45.72;;;33.20;;
54430;SDS011;40342;52.998;5.862;2024-03-22T01:32:27;46.15;;;32.15;;
54430;SDS011;40342;52.998;5.862;2024-03-22T01:34:53;45.20;;;32.20;;
54430;SDS011;40342;52.998;5.862;2024-03-22T01:37:18;50.05;;;33.88;;
54430;SDS011;40342;52.998;5.862;2024-03-22T01:39:44;48.83;;;34.00;;
54430;SDS011;40342;52.998;5.862;2024-03-22T01:42:10;49.40;;;34.15;;
54430;SDS011;40342;52.998;5.862;2024-03-22T01:44:35;54.13;;;35.17;;
54430;SDS011;40342;52.998;5.862;2024-03-22T01:47:01;47.78;;;33.17;;
54430;SDS011;40342;52.998;5.862;2024-03-22T01:49:27;50.53;;;33.30;;
54430;SDS011;40342;52.998;5.862;2024-03-22T01:51:54;53.83;;;35.53;;
54430;SDS011;40342;52.998;5.862;2024-03-22T01:54:20;52.53;;;35.03;;
54430;SDS011;40342;52.998;5.862;2024-03-22T01:56:46;54.45;;;35.95;;
54430;SDS011;40342;52.998;5.862;2024-03-22T01:59:12;56.90;;;35.55;;
54430;SDS011;40342;52.998;5.862;2024-03-22T02:01:38;49.25;;;34.03;;
54430;SDS011;40342;52.998;5.862;2024-03-22T02:04:04;55.83;;;35.42;;
54430;SDS011;40342;52.998;5.862;2024-03-22T02:06:30;56.13;;;35.10;;
54430;SDS011;40342;52.998;5.862;2024-03-22T02:08:56;50.50;;;34.30;;
54430;SDS011;40342;52.998;5.862;2024-03-22T02:11:22;54.15;;;35.90;;
54430;SDS011;40342;52.998;5.862;2024-03-22T02:13:48;48.90;;;34.90;;
54430;SDS011;40342;52.998;5.862;2024-03-22T02:16:14;57.33;;;36.53;;
54430;SDS011;40342;52.998;5.862;2024-03-22T02:18:40;49.30;;;35.05;;
54430;SDS011;40342;52.998;5.862;2024-03-22T02:21:05;54.15;;;35.10;;
54430;SDS011;40342;52.998;5.862;2024-03-22T02:23:35;56.95;;;36.45;;
54430;SDS011;40342;52.998;5.862;2024-03-22T02:26:02;59.35;;;35.67;;
54430;SDS011;40342;52.998;5.862;2024-03-22T02:28:28;54.38;;;34.25;;
54430;SDS011;40342;52.998;5.862;2024-03-22T02:30:55;57.42;;;36.83;;
54430;SDS011;40342;52.998;5.862;2024-03-22T02:33:21;60.70;;;37.53;;
54430;SDS011;40342;52.998;5.862;2024-03-22T02:35:47;51.47;;;35.28;;
54430;SDS011;40342;52.998;5.862;2024-03-22T02:38:14;55.92;;;34.45;;
54430;SDS011;40342;52.998;5.862;2024-03-22T02:40:39;54.70;;;34.42;;
54430;SDS011;40342;52.998;5.862;2024-03-22T02:43:05;57.33;;;35.58;;
54430;SDS011;40342;52.998;5.862;2024-03-22T02:45:31;53.90;;;35.30;;
54430;SDS011;40342;52.998;5.862;2024-03-22T02:47:57;54.85;;;34.15;;
54430;SDS011;40342;52.998;5.862;2024-03-22T02:50:22;59.90;;;35.17;;
54430;SDS011;40342;52.998;5.862;2024-03-22T02:52:49;54.22;;;33.55;;
54430;SDS011;40342;52.998;5.862;2024-03-22T02:55:15;60.70;;;35.63;;
54430;SDS011;40342;52.998;5.862;2024-03-22T02:57:40;58.38;;;34.17;;
54430;SDS011;40342;52.998;5.862;2024-03-22T03:00:06;60.63;;;34.53;;
54430;SDS011;40342;52.998;5.862;2024-03-22T03:02:32;57.00;;;34.05;;
54430;SDS011;40342;52.998;5.862;2024-03-22T03:04:58;57.05;;;32.50;;
54430;SDS011;40342;52.998;5.862;2024-03-22T03:07:24;59.13;;;34.55;;
54430;SDS011;40342;52.998;5.862;2024-03-22T03:09:50;56.15;;;32.75;;
54430;SDS011;40342;52.998;5.862;2024-03-22T03:12:16;58.15;;;33.38;;
54430;SDS011;40342;52.998;5.862;2024-03-22T03:14:41;61.05;;;34.75;;
54430;SDS011;40342;52.998;5.862;2024-03-22T03:17:07;58.95;;;34.92;;
54430;SDS011;40342;52.998;5.862;2024-03-22T03:19:33;58.20;;;34.40;;
54430;SDS011;40342;52.998;5.862;2024-03-22T03:21:58;54.83;;;32.63;;
54430;SDS011;40342;52.998;5.862;2024-03-22T03:24:24;55.50;;;34.25;;
54430;SDS011;40342;52.998;5.862;2024-03-22T03:26:50;57.80;;;34.20;;
54430;SDS011;40342;52.998;5.862;2024-03-22T03:29:15;60.70;;;34.55;;
54430;SDS011;40342;52.998;5.862;2024-03-22T03:31:41;57.97;;;34.15;;
54430;SDS011;40342;52.998;5.862;2024-03-22T03:34:07;56.65;;;34.08;;
54430;SDS011;40342;52.998;5.862;2024-03-22T03:36:32;52.28;;;33.42;;
54430;SDS011;40342;52.998;5.862;2024-03-22T03:38:58;55.95;;;34.33;;
54430;SDS011;40342;52.998;5.862;2024-03-22T03:41:23;57.53;;;35.28;;
54430;SDS011;40342;52.998;5.862;2024-03-22T03:43:49;59.28;;;33.58;;
54430;SDS011;40342;52.998;5.862;2024-03-22T03:46:14;58.63;;;34.45;;
54430;SDS011;40342;52.998;5.862;2024-03-22T03:48:40;59.63;;;34.42;;
54430;SDS011;40342;52.998;5.862;2024-03-22T03:51:06;53.65;;;33.40;;
54430;SDS011;40342;52.998;5.862;2024-03-22T03:53:31;56.70;;;33.45;;
54430;SDS011;40342;52.998;5.862;2024-03-22T03:55:57;60.97;;;34.47;;
54430;SDS011;40342;52.998;5.862;2024-03-22T03:58:22;56.40;;;32.85;;
54430;SDS011;40342;52.998;5.862;2024-03-22T04:00:48;54.92;;;32.60;;
54430;SDS011;40342;52.998;5.862;2024-03-22T04:03:14;54.45;;;33.78;;
54430;SDS011;40342;52.998;5.862;2024-03-22T04:05:39;51.03;;;31.40;;
54430;SDS011;40342;52.998;5.862;2024-03-22T04:08:05;52.13;;;31.52;;
54430;SDS011;40342;52.998;5.862;2024-03-22T04:10:31;45.00;;;30.98;;
54430;SDS011;40342;52.998;5.862;2024-03-22T04:12:57;52.92;;;31.42;;
54430;SDS011;40342;52.998;5.862;2024-03-22T04:15:23;51.45;;;30.58;;
54430;SDS011;40342;52.998;5.862;2024-03-22T04:17:49;46.13;;;29.10;;
54430;SDS011;40342;52.998;5.862;2024-03-22T04:20:14;49.78;;;29.23;;
54430;SDS011;40342;52.998;5.862;2024-03-22T04:22:40;49.22;;;28.75;;
54430;SDS011;40342;52.998;5.862;2024-03-22T04:25:06;45.20;;;28.10;;
54430;SDS011;40342;52.998;5.862;2024-03-22T04:27:32;47.13;;;28.02;;
54430;SDS011;40342;52.998;5.862;2024-03-22T04:30:00;44.85;;;28.48;;
54430;SDS011;40342;52.998;5.862;2024-03-22T04:32:25;48.65;;;29.05;;
54430;SDS011;40342;52.998;5.862;2024-03-22T04:34:51;48.80;;;27.10;;
54430;SDS011;40342;52.998;5.862;2024-03-22T04:37:17;42.13;;;25.98;;
54430;SDS011;40342;52.998;5.862;2024-03-22T04:39:42;39.83;;;24.05;;
54430;SDS011;40342;52.998;5.862;2024-03-22T04:42:11;40.90;;;25.30;;
54430;SDS011;40342;52.998;5.862;2024-03-22T04:44:37;39.53;;;23.75;;
54430;SDS011;40342;52.998;5.862;2024-03-22T04:47:02;42.92;;;24.88;;
54430;SDS011;40342;52.998;5.862;2024-03-22T04:49:28;38.00;;;22.23;;
54430;SDS011;40342;52.998;5.862;2024-03-22T04:51:54;38.15;;;21.67;;
54430;SDS011;40342;52.998;5.862;2024-03-22T04:54:20;35.42;;;21.40;;
54430;SDS011;40342;52.998;5.862;2024-03-22T04:56:46;33.75;;;19.75;;
54430;SDS011;40342;52.998;5.862;2024-03-22T04:59:11;31.83;;;18.92;;
54430;SDS011;40342;52.998;5.862;2024-03-22T05:01:37;33.70;;;19.38;;
54430;SDS011;40342;52.998;5.862;2024-03-22T05:04:02;28.83;;;19.05;;
54430;SDS011;40342;52.998;5.862;2024-03-22T05:06:28;37.60;;;19.05;;
54430;SDS011;40342;52.998;5.862;2024-03-22T05:08:54;38.63;;;19.38;;
54430;SDS011;40342;52.998;5.862;2024-03-22T05:11:19;31.88;;;17.80;;
54430;SDS011;40342;52.998;5.862;2024-03-22T05:13:45;32.10;;;18.67;;
54430;SDS011;40342;52.998;5.862;2024-03-22T05:16:11;27.73;;;18.48;;
54430;SDS011;40342;52.998;5.862;2024-03-22T05:18:37;30.75;;;17.63;;
54430;SDS011;40342;52.998;5.862;2024-03-22T05:21:03;43.63;;;18.55;;
54430;SDS011;40342;52.998;5.862;2024-03-22T05:23:29;30.60;;;17.55;;
54430;SDS011;40342;52.998;5.862;2024-03-22T05:25:54;33.65;;;17.27;;
54430;SDS011;40342;52.998;5.862;2024-03-22T05:28:20;28.33;;;17.88;;
54430;SDS011;40342;52.998;5.862;2024-03-22T05:30:46;31.90;;;16.98;;
54430;SDS011;40342;52.998;5.862;2024-03-22T05:33:12;36.58;;;17.52;;
54430;SDS011;40342;52.998;5.862;2024-03-22T05:35:37;34.15;;;16.85;;
54430;SDS011;40342;52.998;5.862;2024-03-22T05:38:03;34.75;;;16.92;;
54430;SDS011;40342;52.998;5.862;2024-03-22T05:40:29;32.50;;;15.93;;
54430;SDS011;40342;52.998;5.862;2024-03-22T05:42:54;30.13;;;16.83;;
54430;SDS011;40342;52.998;5.862;2024-03-22T05:45:20;26.45;;;14.60;;
54430;SDS011;40342;52.998;5.862;2024-03-22T05:47:45;30.45;;;16.02;;
54430;SDS011;40342;52.998;5.862;2024-03-22T05:50:11;33.90;;;15.73;;
54430;SDS011;40342;52.998;5.862;2024-03-22T05:52:39;30.23;;;14.93;;
54430;SDS011;40342;52.998;5.862;2024-03-22T05:55:05;24.52;;;14.05;;
54430;SDS011;40342;52.998;5.862;2024-03-22T05:57:31;30.75;;;14.48;;
54430;SDS011;40342;52.998;5.862;2024-03-22T05:59:56;30.77;;;14.63;;
54430;SDS011;40342;52.998;5.862;2024-03-22T06:02:22;34.78;;;16.58;;
54430;SDS011;40342;52.998;5.862;2024-03-22T06:04:48;29.70;;;14.05;;
54430;SDS011;40342;52.998;5.862;2024-03-22T06:07:14;29.02;;;14.45;;
54430;SDS011;40342;52.998;5.862;2024-03-22T06:09:41;31.77;;;14.20;;
54430;SDS011;40342;52.998;5.862;2024-03-22T06:12:15;27.40;;;14.77;;
54430;SDS011;40342;52.998;5.862;2024-03-22T06:14:41;31.25;;;14.02;;
54430;SDS011;40342;52.998;5.862;2024-03-22T06:17:11;32.05;;;14.27;;
54430;SDS011;40342;52.998;5.862;2024-03-22T06:19:37;32.67;;;13.88;;
54430;SDS011;40342;52.998;5.862;2024-03-22T06:22:03;25.05;;;14.10;;
54430;SDS011;40342;52.998;5.862;2024-03-22T06:24:29;33.28;;;14.57;;
54430;SDS011;40342;52.998;5.862;2024-03-22T06:26:55;30.27;;;14.70;;
54430;SDS011;40342;52.998;5.862;2024-03-22T06:29:20;30.67;;;14.82;;
54430;SDS011;40342;52.998;5.862;2024-03-22T06:31:46;24.60;;;13.80;;
54430;SDS011;40342;52.998;5.862;2024-03-22T06:34:12;31.83;;;15.48;;
54430;SDS011;40342;52.998;5.862;2024-03-22T06:36:38;31.90;;;13.93;;
54430;SDS011;40342;52.998;5.862;2024-03-22T06:39:04;27.88;;;14.02;;
54430;SDS011;40342;52.998;5.862;2024-03-22T06:41:32;30.95;;;14.48;;
54430;SDS011;40342;52.998;5.862;2024-03-22T06:43:58;34.25;;;15.00;;
54430;SDS011;40342;52.998;5.862;2024-03-22T06:46:23;27.42;;;15.48;;
54430;SDS011;40342;52.998;5.862;2024-03-22T06:48:49;29.23;;;14.55;;
54430;SDS011;40342;52.998;5.862;2024-03-22T06:51:15;26.55;;;13.82;;
54430;SDS011;40342;52.998;5.862;2024-03-22T06:53:41;28.98;;;14.75;;
54430;SDS011;40342;52.998;5.862;2024-03-22T06:56:07;30.52;;;15.05;;
54430;SDS011;40342;52.998;5.862;2024-03-22T06:58:35;30.92;;;14.30;;
54430;SDS011;40342;52.998;5.862;2024-03-22T07:01:01;29.42;;;14.30;;
54430;SDS011;40342;52.998;5.862;2024-03-22T07:03:26;31.20;;;14.55;;
54430;SDS011;40342;52.998;5.862;2024-03-22T07:05:52;29.98;;;14.40;;
54430;SDS011;40342;52.998;5.862;2024-03-22T07:08:18;29.05;;;15.30;;
54430;SDS011;40342;52.998;5.862;2024-03-22T07:10:43;25.98;;;14.43;;
54430;SDS011;40342;52.998;5.862;2024-03-22T07:13:10;29.52;;;14.70;;
54430;SDS011;40342;52.998;5.862;2024-03-22T07:15:36;26.85;;;14.40;;
54430;SDS011;40342;52.998;5.862;2024-03-22T07:18:02;29.58;;;14.80;;
54430;SDS011;40342;52.998;5.862;2024-03-22T07:20:28;33.05;;;15.10;;
54430;SDS011;40342;52.998;5.862;2024-03-22T07:22:55;23.52;;;14.00;;
54430;SDS011;40342;52.998;5.862;2024-03-22T07:25:21;28.02;;;14.60;;
54430;SDS011;40342;52.998;5.862;2024-03-22T07:27:46;28.10;;;14.55;;
54430;SDS011;40342;52.998;5.862;2024-03-22T07:30:14;29.83;;;14.55;;
54430;SDS011;40342;52.998;5.862;2024-03-22T07:32:40;25.67;;;14.70;;
54430;SDS011;40342;52.998;5.862;2024-03-22T07:35:05;32.25;;;14.50;;
54430;SDS011;40342;52.998;5.862;2024-03-22T07:37:32;28.23;;;13.93;;
54430;SDS011;40342;52.998;5.862;2024-03-22T07:39:59;25.15;;;14.23;;
54430;SDS011;40342;52.998;5.862;2024-03-22T07:42:25;31.05;;;14.23;;
54430;SDS011;40342;52.998;5.862;2024-03-22T07:44:50;30.25;;;14.52;;
54430;SDS011;40342;52.998;5.862;2024-03-22T07:47:16;26.10;;;14.95;;
54430;SDS011;40342;52.998;5.862;2024-03-22T07:49:42;23.75;;;14.52;;
54430;SDS011;40342;52.998;5.862;2024-03-22T07:52:07;26.10;;;15.32;;
54430;SDS011;40342;52.998;5.862;2024-03-22T07:54:33;30.73;;;14.65;;
54430;SDS011;40342;52.998;5.862;2024-03-22T07:56:58;26.10;;;14.23;;
54430;SDS011;40342;52.998;5.862;2024-03-22T07:59:24;25.38;;;14.60;;
54430;SDS011;40342;52.998;5.862;2024-03-22T08:01:50;24.63;;;15.13;;
54430;SDS011;40342;52.998;5.862;2024-03-22T08:04:16;30.35;;;14.93;;
54430;SDS011;40342;52.998;5.862;2024-03-22T08:06:41;25.83;;;14.75;;
54430;SDS011;40342;52.998;5.862;2024-03-22T08:09:07;27.88;;;15.70;;
54430;SDS011;40342;52.998;5.862;2024-03-22T08:11:33;27.60;;;15.70;;
54430;SDS011;40342;52.998;5.862;2024-03-22T08:13:58;27.33;;;15.60;;
54430;SDS011;40342;52.998;5.862;2024-03-22T08:16:28;32.90;;;16.65;;
54430;SDS011;40342;52.998;5.862;2024-03-22T08:18:54;24.70;;;15.50;;
54430;SDS011;40342;52.998;5.862;2024-03-22T08:21:20;27.35;;;16.05;;
54430;SDS011;40342;52.998;5.862;2024-03-22T08:23:46;23.80;;;14.60;;
54430;SDS011;40342;52.998;5.862;2024-03-22T08:26:12;26.95;;;14.98;;
54430;SDS011;40342;52.998;5.862;2024-03-22T08:28:37;20.80;;;13.60;;
54430;SDS011;40342;52.998;5.862;2024-03-22T08:31:04;26.15;;;14.55;;
54430;SDS011;40342;52.998;5.862;2024-03-22T08:33:30;24.33;;;13.90;;
54430;SDS011;40342;52.998;5.862;2024-03-22T08:35:55;23.80;;;14.00;;
54430;SDS011;40342;52.998;5.862;2024-03-22T08:38:21;25.35;;;15.40;;
54430;SDS011;40342;52.998;5.862;2024-03-22T08:40:47;21.00;;;14.02;;
54430;SDS011;40342;52.998;5.862;2024-03-22T08:43:13;24.17;;;14.60;;
54430;SDS011;40342;52.998;5.862;2024-03-22T08:45:39;27.15;;;15.27;;
54430;SDS011;40342;52.998;5.862;2024-03-22T08:48:04;23.75;;;15.73;;
54430;SDS011;40342;52.998;5.862;2024-03-22T08:50:30;23.17;;;14.45;;
54430;SDS011;40342;52.998;5.862;2024-03-22T08:52:56;28.50;;;15.23;;
54430;SDS011;40342;52.998;5.862;2024-03-22T08:55:21;26.08;;;14.93;;
54430;SDS011;40342;52.998;5.862;2024-03-22T08:57:47;22.10;;;13.85;;
54430;SDS011;40342;52.998;5.862;2024-03-22T09:00:13;24.50;;;14.48;;
54430;SDS011;40342;52.998;5.862;2024-03-22T09:02:39;24.30;;;14.02;;
54430;SDS011;40342;52.998;5.862;2024-03-22T09:05:05;27.08;;;14.82;;
54430;SDS011;40342;52.998;5.862;2024-03-22T09:07:31;20.80;;;13.68;;
54430;SDS011;40342;52.998;5.862;2024-03-22T09:09:57;22.10;;;13.70;;
54430;SDS011;40342;52.998;5.862;2024-03-22T09:12:22;17.58;;;12.65;;
54430;SDS011;40342;52.998;5.862;2024-03-22T09:14:48;21.25;;;13.68;;
54430;SDS011;40342;52.998;5.862;2024-03-22T09:17:13;20.23;;;12.88;;
54430;SDS011;40342;52.998;5.862;2024-03-22T09:19:39;16.42;;;11.93;;
54430;SDS011;40342;52.998;5.862;2024-03-22T09:22:05;16.52;;;12.50;;
54430;SDS011;40342;52.998;5.862;2024-03-22T09:24:31;17.13;;;12.35;;
54430;SDS011;40342;52.998;5.862;2024-03-22T09:26:56;19.27;;;11.43;;
54430;SDS011;40342;52.998;5.862;2024-03-22T09:29:23;21.30;;;11.75;;
54430;SDS011;40342;52.998;5.862;2024-03-22T09:31:49;15.93;;;10.90;;
54430;SDS011;40342;52.998;5.862;2024-03-22T09:34:16;18.60;;;10.38;;
54430;SDS011;40342;52.998;5.862;2024-03-22T09:36:41;19.00;;;11.32;;
54430;SDS011;40342;52.998;5.862;2024-03-22T09:39:07;16.73;;;10.15;;
54430;SDS011;40342;52.998;5.862;2024-03-22T09:41:33;15.23;;;10.02;;
54430;SDS011;40342;52.998;5.862;2024-03-22T09:44:07;14.63;;;9.38;;
54430;SDS011;40342;52.998;5.862;2024-03-22T09:46:37;16.92;;;9.20;;
54430;SDS011;40342;52.998;5.862;2024-03-22T09:49:04;15.93;;;9.45;;
54430;SDS011;40342;52.998;5.862;2024-03-22T09:51:31;15.35;;;8.70;;
54430;SDS011;40342;52.998;5.862;2024-03-22T09:53:57;13.13;;;8.85;;
54430;SDS011;40342;52.998;5.862;2024-03-22T09:56:23;13.95;;;8.60;;
54430;SDS011;40342;52.998;5.862;2024-03-22T09:58:50;11.75;;;8.30;;
54430;SDS011;40342;52.998;5.862;2024-03-22T10:01:16;9.45;;;7.47;;
54430;SDS011;40342;52.998;5.862;2024-03-22T10:03:42;11.50;;;7.15;;
54430;SDS011;40342;52.998;5.862;2024-03-22T10:06:09;10.18;;;6.70;;
54430;SDS011;40342;52.998;5.862;2024-03-22T10:08:35;10.10;;;6.97;;
54430;SDS011;40342;52.998;5.862;2024-03-22T10:11:03;11.10;;;6.63;;
54430;SDS011;40342;52.998;5.862;2024-03-22T10:13:29;11.00;;;7.15;;
54430;SDS011;40342;52.998;5.862;2024-03-22T10:15:56;12.70;;;7.68;;
54430;SDS011;40342;52.998;5.862;2024-03-22T10:18:22;11.30;;;7.47;;
54430;SDS011;40342;52.998;5.862;2024-03-22T10:20:58;10.93;;;7.22;;
54430;SDS011;40342;52.998;5.862;2024-03-22T10:23:33;9.90;;;7.65;;
54430;SDS011;40342;52.998;5.862;2024-03-22T10:25:59;9.57;;;7.80;;
54430;SDS011;40342;52.998;5.862;2024-03-22T10:28:28;11.45;;;7.38;;
54430;SDS011;40342;52.998;5.862;2024-03-22T10:30:54;12.15;;;8.07;;
54430;SDS011;40342;52.998;5.862;2024-03-22T10:33:20;11.82;;;7.80;;
54430;SDS011;40342;52.998;5.862;2024-03-22T10:35:51;10.25;;;7.60;;
54430;SDS011;40342;52.998;5.862;2024-03-22T10:38:19;12.38;;;7.18;;
54430;SDS011;40342;52.998;5.862;2024-03-22T10:40:45;12.00;;;7.00;;
54430;SDS011;40342;52.998;5.862;2024-03-22T10:43:12;10.90;;;7.60;;
54430;SDS011;40342;52.998;5.862;2024-03-22T10:45:41;12.18;;;6.68;;
54430;SDS011;40342;52.998;5.862;2024-03-22T10:48:10;9.50;;;7.22;;
54430;SDS011;40342;52.998;5.862;2024-03-22T10:50:39;10.15;;;5.75;;
54430;SDS011;40342;52.998;5.862;2024-03-22T10:53:06;11.02;;;6.00;;
54430;SDS011;40342;52.998;5.862;2024-03-22T10:55:38;7.97;;;5.53;;
54430;SDS011;40342;52.998;5.862;2024-03-22T10:58:14;6.22;;;4.30;;
54430;SDS011;40342;52.998;5.862;2024-03-22T11:00:45;5.88;;;4.03;;
54430;SDS011;40342;52.998;5.862;2024-03-22T11:03:12;5.53;;;2.92;;
54430;SDS011;40342;52.998;5.862;2024-03-22T11:05:45;4.80;;;2.70;;
54430;SDS011;40342;52.998;5.862;2024-03-22T11:08:12;3.33;;;2.70;;
54430;SDS011;40342;52.998;5.862;2024-03-22T11:10:38;5.35;;;3.30;;
54430;SDS011;40342;52.998;5.862;2024-03-22T11:13:04;7.07;;;3.08;;
54430;SDS011;40342;52.998;5.862;2024-03-22T11:15:32;6.85;;;2.80;;
54430;SDS011;40342;52.998;5.862;2024-03-22T11:17:58;3.20;;;2.65;;
54430;SDS011;40342;52.998;5.862;2024-03-22T11:20:27;6.32;;;3.60;;
54430;SDS011;40342;52.998;5.862;2024-03-22T11:22:54;6.72;;;2.97;;
54430;SDS011;40342;52.998;5.862;2024-03-22T11:25:21;5.47;;;3.30;;
54430;SDS011;40342;52.998;5.862;2024-03-22T11:27:46;6.63;;;3.35;;
54430;SDS011;40342;52.998;5.862;2024-03-22T11:30:12;5.38;;;3.55;;
54430;SDS011;40342;52.998;5.862;2024-03-22T11:32:39;5.85;;;3.03;;
54430;SDS011;40342;52.998;5.862;2024-03-22T11:35:10;7.88;;;3.03;;
54430;SDS011;40342;52.998;5.862;2024-03-22T11:37:41;6.03;;;2.75;;
54430;SDS011;40342;52.998;5.862;2024-03-22T11:40:10;6.47;;;3.03;;
54430;SDS011;40342;52.998;5.862;2024-03-22T11:42:42;5.40;;;3.30;;
54430;SDS011;40342;52.998;5.862;2024-03-22T11:45:15;6.50;;;3.20;;
54430;SDS011;40342;52.998;5.862;2024-03-22T11:47:41;7.47;;;2.80;;
54430;SDS011;40342;52.998;5.862;2024-03-22T11:50:07;7.88;;;3.53;;
54430;SDS011;40342;52.998;5.862;2024-03-22T11:52:34;8.25;;;3.35;;
54430;SDS011;40342;52.998;5.862;2024-03-22T11:55:00;7.80;;;3.58;;
54430;SDS011;40342;52.998;5.862;2024-03-22T11:57:26;7.85;;;3.47;;
54430;SDS011;40342;52.998;5.862;2024-03-22T11:59:58;8.48;;;3.50;;
54430;SDS011;40342;52.998;5.862;2024-03-22T12:02:25;11.48;;;4.15;;
54430;SDS011;40342;52.998;5.862;2024-03-22T12:04:51;9.20;;;3.30;;
54430;SDS011;40342;52.998;5.862;2024-03-22T12:07:17;10.27;;;3.05;;
54430;SDS011;40342;52.998;5.862;2024-03-22T12:09:43;14.18;;;4.03;;
54430;SDS011;40342;52.998;5.862;2024-03-22T12:12:09;8.18;;;3.75;;
54430;SDS011;40342;52.998;5.862;2024-03-22T12:14:36;9.43;;;3.85;;
54430;SDS011;40342;52.998;5.862;2024-03-22T12:17:02;12.77;;;4.63;;
54430;SDS011;40342;52.998;5.862;2024-03-22T12:19:28;11.57;;;4.00;;
54430;SDS011;40342;52.998;5.862;2024-03-22T12:21:54;13.82;;;4.47;;
54430;SDS011;40342;52.998;5.862;2024-03-22T12:24:20;11.43;;;4.68;;
54430;SDS011;40342;52.998;5.862;2024-03-22T12:26:46;11.68;;;4.97;;
54430;SDS011;40342;52.998;5.862;2024-03-22T12:29:13;11.63;;;5.50;;
54430;SDS011;40342;52.998;5.862;2024-03-22T12:31:40;19.98;;;6.20;;
54430;SDS011;40342;52.998;5.862;2024-03-22T12:34:06;15.15;;;6.25;;
54430;SDS011;40342;52.998;5.862;2024-03-22T12:36:32;12.13;;;5.72;;
54430;SDS011;40342;52.998;5.862;2024-03-22T12:38:57;9.23;;;5.10;;
54430;SDS011;40342;52.998;5.862;2024-03-22T12:41:23;11.88;;;5.85;;
54430;SDS011;40342;52.998;5.862;2024-03-22T12:43:48;13.70;;;5.75;;
54430;SDS011;40342;52.998;5.862;2024-03-22T12:46:14;13.40;;;5.47;;
54430;SDS011;40342;52.998;5.862;2024-03-22T12:48:40;11.88;;;5.30;;
54430;SDS011;40342;52.998;5.862;2024-03-22T12:51:06;16.20;;;5.72;;
54430;SDS011;40342;52.998;5.862;2024-03-22T12:53:32;15.18;;;5.38;;
54430;SDS011;40342;52.998;5.862;2024-03-22T12:55:57;11.05;;;5.18;;
54430;SDS011;40342;52.998;5.862;2024-03-22T12:58:23;15.32;;;5.53;;
54430;SDS011;40342;52.998;5.862;2024-03-22T13:00:49;10.93;;;5.13;;
54430;SDS011;40342;52.998;5.862;2024-03-22T13:03:14;15.45;;;5.90;;
54430;SDS011;40342;52.998;5.862;2024-03-22T13:05:41;11.75;;;5.03;;
54430;SDS011;40342;52.998;5.862;2024-03-22T13:08:07;17.25;;;5.47;;
54430;SDS011;40342;52.998;5.862;2024-03-22T13:10:32;16.05;;;5.13;;
54430;SDS011;40342;52.998;5.862;2024-03-22T13:12:58;12.77;;;4.38;;
54430;SDS011;40342;52.998;5.862;2024-03-22T13:15:24;16.65;;;4.25;;
54430;SDS011;40342;52.998;5.862;2024-03-22T13:17:50;11.43;;;4.35;;
54430;SDS011;40342;52.998;5.862;2024-03-22T13:20:17;22.92;;;3.97;;
54430;SDS011;40342;52.998;5.862;2024-03-22T13:22:44;13.65;;;3.95;;
54430;SDS011;40342;52.998;5.862;2024-03-22T13:25:09;19.58;;;4.53;;
54430;SDS011;40342;52.998;5.862;2024-03-22T13:27:36;15.75;;;3.63;;
54430;SDS011;40342;52.998;5.862;2024-03-22T13:30:06;16.13;;;3.67;;
54430;SDS011;40342;52.998;5.862;2024-03-22T13:32:39;16.60;;;3.28;;
54430;SDS011;40342;52.998;5.862;2024-03-22T13:35:05;14.68;;;3.47;;
54430;SDS011;40342;52.998;5.862;2024-03-22T13:37:31;12.15;;;3.53;;
54430;SDS011;40342;52.998;5.862;2024-03-22T13:39:57;11.18;;;3.33;;
54430;SDS011;40342;52.998;5.862;2024-03-22T13:42:23;13.65;;;3.50;;
54430;SDS011;40342;52.998;5.862;2024-03-22T13:44:48;14.93;;;3.40;;
54430;SDS011;40342;52.998;5.862;2024-03-22T13:47:14;13.55;;;3.17;;
54430;SDS011;40342;52.998;5.862;2024-03-22T13:49:40;12.00;;;3.55;;
54430;SDS011;40342;52.998;5.862;2024-03-22T13:52:09;11.80;;;2.80;;
54430;SDS011;40342;52.998;5.862;2024-03-22T13:54:35;10.50;;;2.95;;
54430;SDS011;40342;52.998;5.862;2024-03-22T13:57:01;13.18;;;3.10;;
54430;SDS011;40342;52.998;5.862;2024-03-22T13:59:30;9.18;;;2.72;;
54430;SDS011;40342;52.998;5.862;2024-03-22T14:01:56;10.57;;;2.53;;
54430;SDS011;40342;52.998;5.862;2024-03-22T14:04:25;12.55;;;2.60;;
54430;SDS011;40342;52.998;5.862;2024-03-22T14:06:54;11.25;;;2.80;;
54430;SDS011;40342;52.998;5.862;2024-03-22T14:09:19;14.95;;;3.70;;
54430;SDS011;40342;52.998;5.862;2024-03-22T14:11:45;11.68;;;2.75;;
54430;SDS011;40342;52.998;5.862;2024-03-22T14:14:13;15.43;;;3.38;;
54430;SDS011;40342;52.998;5.862;2024-03-22T14:16:39;17.83;;;3.38;;
54430;SDS011;40342;52.998;5.862;2024-03-22T14:19:09;12.00;;;3.55;;